KCFV - Coffeyville, Kansas, USA
Distance from station: ENE 93mi, 150km
Updated: Fri, 21-Jan-2022 11:52pm PST
Clear
Clear
 Wind from S
Wind: S 3 mph , 6 km/h
Temperature: 19°F , -7°C
Dew Point: 10°F , -12°C
Humidity: 68%
Barometer: 30.44 inHg , 1030.8 hPa
Clouds: Clear
Visibility: 10 miles , 16 km
2022/01/22 07:52 KCFV 220752Z AUTO 17003KT 10SM CLR M07/M12 A3044 RMK AO2 SLP316 T10671122 TSNO
KIDP - Independence, Kansas, USA
Distance from station: NE 86mi, 138km
Updated: Sat, 22-Jan-2022 12:35am PST
Clear
Clear
 Wind from SSW
Wind: SSW 6 mph , 9 km/h
Temperature: 19°F , -7°C
Wind Chill: 11°F , -12°C
Dew Point: 10°F , -12°C
Humidity: 68%
Barometer: 30.44 inHg , 1030.8 hPa
Clouds: Clear
Visibility: 10 miles , 16 km
2022/01/22 08:35 KIDP 220835Z AUTO 21005KT 10SM CLR M07/M12 A3044 RMK AO2 T10711125
 
KIAB - Mcconnell Afb, Kansas, USA
Distance from station: N 84mi, 135km
Updated: Fri, 21-Jan-2022 11:56pm PST
Few Clouds
Few Clouds
 Wind from SW
Wind: SW 9 mph , 15 km/h
Temperature: 21°F , -6°C
Wind Chill: 11°F , -12°C
Dew Point: 5°F , -15°C
Humidity: 49%
Barometer: 30.38 inHg , 1028.8 hPa
Clouds: Few Clouds
Visibility: 10 miles , 16 km
Cloud details: Few Clouds 16000 ft
Few Clouds 20000 ft
2022/01/22 07:56 KIAB 220756Z AUTO 22008KT 10SM FEW160 FEW200 M06/M15 A3038 RMK AO2 SLP308 T10601150 $
KICT - Wichita, Kansas, USA
Distance from station: NNW 88mi, 142km
Updated: Fri, 21-Jan-2022 11:53pm PST
Mostly Cloudy
Mostly Cloudy
 Wind from S
Wind: S 5 mph , 7 km/h
Temperature: 21°F , -6°C
Wind Chill: 14°F , -10°C
Dew Point: 3°F , -16°C
Humidity: 45%
Barometer: 30.38 inHg , 1028.8 hPa
Clouds: Mostly Cloudy
Visibility: 10 miles , 16 km
Cloud details: Partly Cloudy 15000 ft
Mostly Cloudy 25000 ft
2022/01/22 07:53 KICT 220753Z 19004KT 10SM SCT150 BKN250 M06/M16 A3038 RMK AO2 SLP302 T10561156
 
KAAO - Wichita/Jabara, Kansas, USA
Distance from station: N 93mi, 149km
Updated: Fri, 21-Jan-2022 11:54pm PST
Clear
Clear
 Wind from SSW
Wind: SSW 7 mph , 11 km/h
Temperature: 21°F , -6°C
Wind Chill: 12°F , -11°C
Dew Point: 3°F , -16°C
Humidity: 45%
Barometer: 30.38 inHg , 1028.8 hPa
Clouds: Clear
Visibility: 10 miles , 16 km
2022/01/22 07:54 KAAO 220754Z AUTO 20006KT 10SM CLR M06/M16 A3038 RMK AO2 SLP305 T10561156
KWLD - Winfield/Arkansa, Kansas, USA
Distance from station: N 52mi, 84km
Updated: Fri, 21-Jan-2022 11:54pm PST
Clear
Clear
 Wind from S
Wind: S 5 mph , 7 km/h
Temperature: 21°F , -6°C
Wind Chill: 14°F , -10°C
Dew Point: 7°F , -14°C
Humidity: 54%
Barometer: 30.42 inHg , 1030.1 hPa
Clouds: Clear
Visibility: 10 miles , 16 km
2022/01/22 07:54 KWLD 220754Z AUTO 17004KT 10SM CLR M06/M14 A3042 RMK AO2 SLP313 T10561139
 
KAVK - Alva, Oklahoma, USA
Distance from station: WNW 94mi, 152km
Updated: Sat, 22-Jan-2022 12:35am PST
Mostly Cloudy
Mostly Cloudy
 Wind from WSW
Wind: WSW 6 mph , 9 km/h
Temperature: 21°F , -6°C
Wind Chill: 13°F , -11°C
Dew Point: 5°F , -15°C
Humidity: 49%
Barometer: 30.40 inHg , 1029.5 hPa
Clouds: Mostly Cloudy
Visibility: 10 miles , 16 km
Cloud details: Few Clouds 4100 ft
Partly Cloudy 5000 ft
Mostly Cloudy 6000 ft
2022/01/22 08:35 KAVK 220835Z AUTO 24005KT 10SM FEW041 SCT050 BKN060 M06/M15 A3040 RMK AO2
KBVO - Bartlesville, Oklahoma, USA
Distance from station: ENE 61mi, 98km
Updated: Fri, 21-Jan-2022 11:53pm PST
Clear
Clear
 Wind from calm
Wind: Calm
Temperature: 16°F , -9°C
Dew Point: 10°F , -12°C
Humidity: 79%
Barometer: 30.46 inHg , 1031.5 hPa
Clouds: Clear
Visibility: 10 miles , 16 km
2022/01/22 07:53 KBVO 220753Z AUTO 00000KT 10SM CLR M09/M12 A3046 RMK AO2 SLP321 T10891122
 
KBKN - Blackwell, Oklahoma, USA
Distance from station: NW 29mi, 47km
Updated: Sat, 22-Jan-2022 12:35am PST
Clear
Clear
 Wind from calm
Wind: Calm
Temperature: 23°F , -5°C
Dew Point: 5°F , -15°C
Humidity: 46%
Barometer: 30.43 inHg , 1030.5 hPa
Clouds: Clear
Visibility: 10 miles , 16 km
2022/01/22 08:35 KBKN 220835Z AUTO 00000KT 10SM CLR M05/M15 A3043 RMK AO2
KGCM - Claremore, Oklahoma, USA
Distance from station: E 86mi, 138km
Updated: Sat, 22-Jan-2022 12:35am PST
Clear
Clear
 Wind from calm
Wind: Calm
Temperature: 19°F , -7°C
Dew Point: 12°F , -11°C
Humidity: 73%
Barometer: 30.48 inHg , 1032.2 hPa
Clouds: Clear
Visibility: 10 miles , 16 km
2022/01/22 08:35 KGCM 220835Z AUTO 00000KT 10SM CLR M07/M11 A3048 RMK AO2
 
KCQB - Chandler, Oklahoma, USA
Distance from station: SSE 50mi, 80km
Updated: Sat, 22-Jan-2022 12:10am PST
Clear
Clear
 Wind from S
Wind: S 6 mph , 9 km/h
Temperature: 23°F , -5°C
Wind Chill: 16°F , -9°C
Dew Point: 9°F , -13°C
Humidity: 54%
Barometer: 30.43 inHg , 1030.5 hPa
Clouds: Clear
Visibility: 10 miles , 16 km
2022/01/22 08:10 KCQB 220810Z AUTO 17005KT 10SM CLR M05/M13 A3043 RMK AO2 T10481130
KCUH - Cushing, Oklahoma, USA
Distance from station: SSE 35mi, 57km
Updated: Sat, 22-Jan-2022 12:35am PST
Clear
Clear
 Wind from calm
Wind: Calm
Temperature: 23°F , -5°C
Dew Point: 10°F , -12°C
Humidity: 58%
Barometer: 30.44 inHg , 1030.8 hPa
Clouds: Clear
Visibility: 10 miles , 16 km
2022/01/22 08:35 KCUH 220835Z AUTO 00000KT 10SM CLR M05/M12 A3044 RMK AO2 T10501125
 
KRQO - El Reno Muni, Oklahoma, USA
Distance from station: SW 85mi, 137km
Updated: Sat, 22-Jan-2022 12:35am PST
Clear
Clear
 Wind from SSW
Wind: SSW 7 mph , 11 km/h
Temperature: 23°F , -5°C
Wind Chill: 15°F , -9°C
Dew Point: 7°F , -14°C
Humidity: 50%
Barometer: 30.42 inHg , 1030.1 hPa
Clouds: Clear
Visibility: 10 miles , 16 km
2022/01/22 08:35 KRQO 220835Z AUTO 20006KT 10SM CLR M05/M14 A3042 RMK AO2 T10511141
KEND - Enid/Vance Afb, Oklahoma, USA
Distance from station: W 50mi, 81km
Updated: Fri, 21-Jan-2022 11:56pm PST
Mostly Cloudy
Mostly Cloudy
 Wind from calm
Wind: Calm
Temperature: 21°F , -6°C
Dew Point: 5°F , -15°C
Humidity: 49%
Barometer: 30.40 inHg , 1029.5 hPa
Clouds: Mostly Cloudy
Visibility: 10 miles , 16 km
Cloud details: Mostly Cloudy 22000 ft
2022/01/22 07:56 KEND 220756Z AUTO 00000KT 10SM BKN220 M06/M15 A3040 RMK AO2 SLP311 T10591152
 
KWDG - Enid/Woodring, Oklahoma, USA
Distance from station: W 42mi, 67km
Updated: Sat, 22-Jan-2022 12:35am PST
Clear
Clear
 Wind from calm
Wind: Calm
Temperature: 19°F , -7°C
Dew Point: 9°F , -13°C
Humidity: 63%
Barometer: 30.41 inHg , 1029.8 hPa
Clouds: Clear
Visibility: 10 miles , 16 km
2022/01/22 08:35 KWDG 220835Z AUTO 00000KT 10SM CLR M07/M13 A3041 RMK AO2
KGOK - Guthrie, Oklahoma, USA
Distance from station: SSW 44mi, 71km
Updated: Fri, 21-Jan-2022 11:53pm PST
Clear
Clear
 Wind from S
Wind: S 5 mph , 7 km/h
Temperature: 25°F , -4°C
Wind Chill: 19°F , -7°C
Dew Point: 9°F , -13°C
Humidity: 50%
Barometer: 30.42 inHg , 1030.1 hPa
Clouds: Clear
2022/01/22 07:53 KGOK 220753Z AUTO 17004KT CLR M04/M13 A3042 RMK AO2 SLP312 T10441128 $
 
KOUN - Norman/Westheime, Oklahoma, USA
Distance from station: SSW 84mi, 136km
Updated: Sat, 22-Jan-2022 12:35am PST
Clear
Clear
 Wind from calm
Wind: Calm
Temperature: 21°F , -6°C
Dew Point: 10°F , -12°C
Humidity: 63%
Barometer: 30.40 inHg , 1029.5 hPa
Clouds: Clear
Visibility: 10 miles , 16 km
2022/01/22 08:35 KOUN 220835Z AUTO 00000KT 10SM CLR M06/M12 A3040 RMK AO2 T10611122
KOKC - Oklahoma City, Oklahoma, USA
Distance from station: SSW 78mi, 126km
Updated: Fri, 21-Jan-2022 11:52pm PST
Mostly Cloudy
Mostly Cloudy
 Wind from calm
Wind: Calm
Temperature: 25°F , -4°C
Dew Point: 7°F , -14°C
Humidity: 46%
Barometer: 30.41 inHg , 1029.8 hPa
Clouds: Mostly Cloudy
Visibility: 10 miles , 16 km
Cloud details: Mostly Cloudy 20000 ft
2022/01/22 07:52 KOKC 220752Z 00000KT 10SM BKN200 M04/M14 A3041 RMK AO2 SLP311 T10391144 $
 
KPWA - Okla City/Wiley, Oklahoma, USA
Distance from station: SSW 70mi, 113km
Updated: Fri, 21-Jan-2022 11:53pm PST
Clear
Clear
 Wind from S
Wind: S 5 mph , 7 km/h
Temperature: 27°F , -3°C
Wind Chill: 21°F , -6°C
Dew Point: 9°F , -13°C
Humidity: 46%
Barometer: 30.41 inHg , 1029.8 hPa
Clouds: Clear
Visibility: 10 miles , 16 km
2022/01/22 07:53 KPWA 220753Z AUTO 18004KT 10SM CLR M03/M13 A3041 RMK AO2 SLP309 T10281133
KRCE - Okla City/Page, Oklahoma, USA
Distance from station: SW 78mi, 126km
Updated: Sat, 22-Jan-2022 12:35am PST
Clear
Clear
 Wind from S
Wind: S 8 mph , 13 km/h
Temperature: 21°F , -6°C
Wind Chill: 11°F , -12°C
Dew Point: 7°F , -14°C
Humidity: 54%
Barometer: 30.40 inHg , 1029.5 hPa
Clouds: Clear
Visibility: 10 miles , 16 km
2022/01/22 08:35 KRCE 220835Z AUTO 17007KT 10SM CLR M06/M14 A3040 RMK AO2
 
KOKM - Okmulgee, Oklahoma, USA
Distance from station: SE 79mi, 127km
Updated: Sat, 22-Jan-2022 12:35am PST
Clear
Clear
 Wind from calm
Wind: Calm
Temperature: 19°F , -7°C
Dew Point: 14°F , -10°C
Humidity: 79%
Barometer: 30.45 inHg , 1031.2 hPa
Clouds: Clear
Visibility: 10 miles , 16 km
2022/01/22 08:35 KOKM 220835Z AUTO 00000KT 10SM CLR M07/M10 A3045 RMK AO2 T10721103
KPNC - Ponca City, Oklahoma, USA
Distance from station: N 22mi, 36km
Updated: Fri, 21-Jan-2022 11:53pm PST
Clear
Clear
 Wind from S
Wind: S 3 mph , 6 km/h
Temperature: 27°F , -3°C
Dew Point: 7°F , -14°C
Humidity: 43%
Barometer: 30.43 inHg , 1030.5 hPa
Clouds: Clear
Visibility: 10 miles , 16 km
2022/01/22 07:53 KPNC 220753Z AUTO 18003KT 10SM CLR M03/M14 A3043 RMK AO2 SLP313 T10281139 TSNO $
 
KSNL - Shawnee, Oklahoma, USA
Distance from station: S 74mi, 119km
Updated: Sat, 22-Jan-2022 12:35am PST
Clear
Clear
 Wind from calm
Wind: Calm
Temperature: 25°F , -4°C
Dew Point: 3°F , -16°C
Humidity: 39%
Barometer: 30.43 inHg , 1030.5 hPa
Clouds: Clear
Visibility: 10 miles , 16 km
2022/01/22 08:35 KSNL 220835Z AUTO 00000KT 10SM CLR M04/M16 A3043 RMK AO2 T10401160
KSWO - Stillwater, Oklahoma, USA
Distance from station: S 17mi, 28km
Updated: Fri, 21-Jan-2022 11:53pm PST
Clear
Clear
 Wind from calm
Wind: Calm
Temperature: 25°F , -4°C
Dew Point: 9°F , -13°C
Humidity: 50%
Barometer: 30.43 inHg , 1030.5 hPa
Clouds: Clear
Visibility: 10 miles , 16 km
2022/01/22 07:53 KSWO 220753Z AUTO 00000KT 10SM CLR M04/M13 A3043 RMK AO2 SLP312 T10391128
 
KTIK - Tinker Afb, Oklahoma, USA
Distance from station: SSW 72mi, 115km
Updated: Fri, 21-Jan-2022 11:56pm PST
Clear
Clear
 Wind from calm
Wind: Calm
Temperature: 27°F , -3°C
Dew Point: 7°F , -14°C
Humidity: 43%
Barometer: 30.40 inHg , 1029.5 hPa
Clouds: Clear
Visibility: 10 miles , 16 km
2022/01/22 07:56 KTIK 220756Z AUTO 00000KT 10SM CLR M03/M14 A3040 RMK AO2 SLP315 T10271142 $
KTUL - Tulsa, Oklahoma, USA
Distance from station: ESE 65mi, 105km
Updated: Fri, 21-Jan-2022 11:53pm PST
Partly Cloudy
Partly Cloudy
 Wind from calm
Wind: Calm
Temperature: 23°F , -5°C
Dew Point: 10°F , -12°C
Humidity: 58%
Barometer: 30.45 inHg , 1031.2 hPa
Clouds: Partly Cloudy
Visibility: 10 miles , 16 km
Cloud details: Partly Cloudy 20000 ft
2022/01/22 07:53 KTUL 220753Z 00000KT 10SM SCT200 M05/M12 A3045 RMK AO2 SLP318 T10501117 $

Metar display script from Saratoga-Weather.org